Arthur, Illinois
Current Conditions -  °F | °C
As of 2:53 AM on Thursday 27 Nov 2014 (Local Time) from KMTO Reporting Station
Clear Clear  
Wind Chill: -12°   Ceiling: Unl
Heat Index: -5°   Visibility: 10mi
Dew Point: -7°   Wind: 13mph
Humidity: 88%   Direction: 350°N
Pressure: 30.24"   Gusts: NA
Location:  39.71°N, 88.47°W
Report Text: KMTO 270853Z AUTO 35011KT 10SM CLR M05/M07 A3024 RMK AO2 SLP248 60000 T10501067 53024
Loading
Personal Weather Stations






























Interactive Weather Map New forecast layout! Learn more

10-Day Weather Forecast

Advertisements
Track Severe Weather on mobile